createdAt,value
2017-05-08T00:00:08.083Z,90.86
2017-05-08T00:01:07.537Z,90.94
2017-05-08T00:02:08.084Z,90.87
2017-05-08T00:03:07.952Z,91.22
2017-05-08T00:04:07.434Z,91.80
2017-05-08T00:05:07.956Z,92.03
2017-05-08T00:06:07.555Z,91.64
2017-05-08T00:07:08.093Z,91.74
2017-05-08T00:08:07.825Z,91.87
2017-05-08T00:09:08.785Z,91.76
2017-05-08T00:10:08.332Z,91.61
2017-05-08T00:11:07.856Z,90.52
2017-05-08T00:12:08.608Z,90.56
2017-05-08T00:13:08.420Z,90.80
2017-05-08T00:14:07.950Z,90.78
2017-05-08T00:15:07.511Z,91.24
2017-05-08T00:16:08.179Z,91.22
2017-05-08T00:17:07.805Z,91.40
2017-05-08T00:18:08.296Z,90.99
2017-05-08T00:19:07.845Z,91.54
2017-05-08T00:20:08.305Z,91.30
2017-05-08T00:21:07.927Z,91.63
2017-05-08T00:22:07.797Z,91.36
2017-05-08T00:23:08.747Z,91.70
2017-05-08T00:24:08.395Z,92.00
2017-05-08T00:25:08.066Z,91.28
2017-05-08T00:26:07.645Z,91.01
2017-05-08T00:27:08.186Z,90.59
2017-05-08T00:28:07.951Z,91.23
2017-05-08T00:29:07.804Z,91.61
2017-05-08T00:30:08.296Z,91.47
2017-05-08T00:31:07.857Z,91.36
2017-05-08T00:32:08.688Z,92.27
2017-05-08T00:33:08.487Z,92.11
2017-05-08T00:34:08.026Z,91.62
2017-05-08T00:35:07.871Z,91.07
2017-05-08T00:36:08.497Z,90.86
2017-05-08T00:37:07.961Z,90.99
2017-05-08T00:38:07.471Z,90.51
2017-05-08T00:39:07.989Z,90.72
2017-05-08T00:40:07.421Z,90.89
2017-05-08T00:41:07.998Z,91.00
2017-05-08T00:42:07.744Z,90.95
2017-05-08T00:43:08.335Z,90.57
2017-05-08T00:44:07.879Z,91.72
2017-05-08T00:45:08.454Z,91.50
2017-05-08T00:46:08.288Z,91.34
2017-05-08T00:47:07.785Z,91.43
2017-05-08T00:48:08.376Z,91.46
2017-05-08T00:49:07.813Z,91.03
2017-05-08T00:50:08.291Z,91.32
2017-05-08T00:51:07.824Z,91.36
2017-05-08T00:52:08.400Z,91.49
2017-05-08T00:53:08.239Z,91.24
2017-05-08T00:54:08.098Z,91.40
2017-05-08T00:55:07.837Z,90.91
2017-05-08T00:56:08.414Z,91.15
2017-05-08T00:57:08.137Z,90.93
2017-05-08T00:58:07.704Z,91.39
2017-05-08T00:59:08.241Z,90.89
2017-05-08T01:00:07.739Z,91.36
2017-05-08T01:01:08.389Z,91.34
2017-05-08T01:02:07.870Z,90.92
2017-05-08T01:03:08.769Z,90.27
2017-05-08T01:04:08.322Z,90.76
2017-05-08T01:05:07.866Z,90.40
2017-05-08T01:06:08.618Z,90.00
2017-05-08T01:07:08.182Z,90.22
2017-05-08T01:08:07.721Z,89.88
2017-05-08T01:09:08.252Z,89.65
2017-05-08T01:10:07.761Z,90.22
2017-05-08T01:11:08.340Z,90.46
2017-05-08T01:12:08.256Z,90.20
2017-05-08T01:13:07.846Z,89.93
2017-05-08T01:14:08.592Z,90.08
2017-05-08T01:15:08.053Z,90.23
2017-05-08T01:16:07.563Z,90.28
2017-05-08T01:17:08.524Z,90.80
2017-05-08T01:18:08.045Z,90.66
2017-05-08T01:19:07.613Z,90.56
2017-05-08T01:20:08.174Z,90.56
2017-05-08T01:21:07.918Z,91.02
2017-05-08T01:22:08.534Z,90.78
2017-05-08T01:23:08.053Z,90.58
2017-05-08T01:24:07.486Z,91.15
2017-05-08T01:25:07.956Z,91.09
2017-05-08T01:26:07.566Z,90.92
2017-05-08T01:27:08.074Z,91.21
2017-05-08T01:28:07.608Z,90.99
2017-05-08T01:29:08.463Z,90.92
2017-05-08T01:30:08.136Z,90.54
2017-05-08T01:31:07.969Z,90.68
2017-05-08T01:32:07.467Z,91.25
2017-05-08T01:33:07.963Z,90.99
2017-05-08T01:34:07.911Z,91.01
2017-05-08T01:35:08.503Z,90.95
2017-05-08T01:36:08.386Z,91.08
2017-05-08T01:37:08.336Z,91.02
2017-05-08T01:38:07.843Z,91.17
2017-05-08T01:39:08.536Z,91.02
2017-05-08T01:40:08.079Z,90.55
2017-05-08T01:41:07.625Z,90.63
2017-05-08T01:42:08.128Z,91.09
2017-05-08T01:43:07.962Z,91.22
2017-05-08T01:44:07.817Z,91.70
2017-05-08T01:45:08.408Z,91.36
2017-05-08T01:46:07.876Z,91.16
2017-05-08T01:47:08.450Z,91.14
2017-05-08T01:48:08.036Z,90.97
2017-05-08T01:49:07.524Z,91.03
2017-05-08T01:50:08.154Z,90.92
2017-05-08T01:51:07.744Z,90.87
2017-05-08T01:52:08.326Z,90.47
2017-05-08T01:53:07.992Z,91.11
2017-05-08T01:54:07.470Z,90.98
2017-05-08T01:55:08.299Z,91.64
2017-05-08T01:56:07.747Z,91.36
2017-05-08T01:57:09.191Z,91.30
2017-05-08T01:58:08.092Z,91.23
2017-05-08T01:59:07.695Z,91.80
2017-05-08T02:00:08.449Z,91.76
2017-05-08T02:01:08.021Z,91.46
2017-05-08T02:02:07.527Z,91.57
2017-05-08T02:03:08.070Z,91.70
2017-05-08T02:04:07.959Z,91.67
2017-05-08T02:05:07.535Z,91.47
2017-05-08T02:06:08.426Z,91.40
2017-05-08T02:07:08.067Z,91.44
2017-05-08T02:08:08.219Z,91.56
2017-05-08T02:09:07.760Z,91.52
2017-05-08T02:10:08.552Z,92.10
2017-05-08T02:11:08.105Z,91.60
2017-05-08T02:12:07.623Z,91.32
2017-05-08T02:13:08.150Z,91.62
2017-05-08T02:14:07.636Z,91.54
2017-05-08T02:15:08.134Z,91.30
2017-05-08T02:16:07.795Z,91.60
2017-05-08T02:17:08.535Z,91.09
2017-05-08T02:18:08.083Z,90.91
2017-05-08T02:19:07.845Z,91.18
2017-05-08T02:20:08.451Z,91.52
2017-05-08T02:21:07.960Z,91.13
2017-05-08T02:22:07.568Z,91.05
2017-05-08T02:23:08.165Z,91.30
2017-05-08T02:24:08.056Z,91.10
2017-05-08T02:25:07.620Z,91.01
2017-05-08T02:26:08.207Z,91.01
2017-05-08T02:27:08.044Z,90.67
2017-05-08T02:28:07.642Z,91.25
2017-05-08T02:29:08.355Z,91.57
2017-05-08T02:30:08.019Z,91.80
2017-05-08T02:31:07.536Z,91.50
2017-05-08T02:32:08.128Z,91.91
2017-05-08T02:33:07.678Z,91.69
2017-05-08T02:34:08.207Z,91.23
2017-05-08T02:35:07.836Z,90.37
2017-05-08T02:36:08.460Z,90.49
2017-05-08T02:37:08.089Z,91.04
2017-05-08T02:38:07.739Z,90.99
2017-05-08T02:39:08.308Z,90.54
2017-05-08T02:40:08.017Z,90.71
2017-05-08T02:41:07.534Z,90.63
2017-05-08T02:42:08.232Z,91.30
2017-05-08T02:43:07.871Z,91.00
2017-05-08T02:44:08.433Z,91.07
2017-05-08T02:45:08.272Z,91.52
2017-05-08T02:46:07.837Z,90.89
2017-05-08T02:47:08.360Z,90.89
2017-05-08T02:48:07.900Z,91.37
2017-05-08T02:49:08.525Z,92.03
2017-05-08T02:50:08.351Z,91.74
2017-05-08T02:51:07.966Z,92.56
2017-05-08T02:52:07.441Z,92.03
2017-05-08T02:53:08.170Z,91.66
2017-05-08T02:54:07.841Z,91.64
2017-05-08T02:55:09.299Z,91.81
2017-05-08T02:56:07.817Z,91.44
2017-05-08T02:57:08.369Z,91.00
2017-05-08T02:58:07.960Z,91.15
2017-05-08T02:59:07.770Z,92.02
2017-05-08T03:00:08.400Z,92.12
2017-05-08T03:01:07.964Z,92.38
2017-05-08T03:02:07.521Z,92.15
2017-05-08T03:03:08.470Z,91.95
2017-05-08T03:04:08.014Z,92.26
2017-05-08T03:05:07.503Z,92.55
2017-05-08T03:06:08.113Z,92.74
2017-05-08T03:07:07.884Z,92.70
2017-05-08T03:08:08.613Z,92.29
2017-05-08T03:09:08.228Z,92.57
2017-05-08T03:10:07.749Z,91.94
2017-05-08T03:11:08.333Z,91.44
2017-05-08T03:12:07.797Z,91.64
2017-05-08T03:13:08.376Z,91.19
2017-05-08T03:14:07.935Z,91.66
2017-05-08T03:15:08.505Z,91.76
2017-05-08T03:16:08.054Z,91.43
2017-05-08T03:17:07.668Z,91.75
2017-05-08T03:18:08.242Z,91.58
2017-05-08T03:19:08.103Z,91.81
2017-05-08T03:20:07.677Z,91.79
2017-05-08T03:21:08.535Z,91.68
2017-05-08T03:22:08.164Z,91.99
2017-05-08T03:23:07.938Z,92.21
2017-05-08T03:24:07.600Z,91.92
2017-05-08T03:25:08.473Z,91.94
2017-05-08T03:26:08.059Z,91.64
2017-05-08T03:27:07.600Z,91.80
2017-05-08T03:28:08.267Z,91.96
2017-05-08T03:29:07.840Z,91.45
2017-05-08T03:30:08.369Z,92.07
2017-05-08T03:31:08.109Z,92.23
2017-05-08T03:32:07.687Z,92.30
2017-05-08T03:33:08.258Z,91.95
2017-05-08T03:34:07.928Z,92.18
2017-05-08T03:35:08.514Z,92.09
2017-05-08T03:36:08.075Z,91.77
2017-05-08T03:37:07.564Z,91.57
2017-05-08T03:38:08.042Z,91.45
2017-05-08T03:39:07.873Z,91.08
2017-05-08T03:40:08.366Z,91.32
2017-05-08T03:41:07.830Z,91.06
2017-05-08T03:42:08.337Z,90.80
2017-05-08T03:43:07.920Z,91.05
2017-05-08T03:44:08.505Z,91.28
2017-05-08T03:45:08.060Z,91.37
2017-05-08T03:46:07.645Z,91.28
2017-05-08T03:47:08.245Z,91.56
2017-05-08T03:48:07.708Z,91.65
2017-05-08T03:49:08.300Z,91.95
2017-05-08T03:50:07.761Z,92.32
2017-05-08T03:51:08.371Z,92.04
2017-05-08T03:52:08.239Z,91.90
2017-05-08T03:53:07.757Z,91.41
2017-05-08T03:54:08.237Z,91.70
2017-05-08T03:55:07.728Z,91.64
2017-05-08T03:56:08.306Z,92.12
2017-05-08T03:57:08.189Z,91.75
2017-05-08T03:58:07.810Z,91.41
2017-05-08T03:59:08.368Z,91.73
2017-05-08T04:00:08.132Z,91.98
2017-05-08T04:01:07.989Z,92.00
2017-05-08T04:02:07.532Z,91.99
2017-05-08T04:03:08.153Z,91.73
2017-05-08T04:04:07.716Z,91.57
2017-05-08T04:05:08.485Z,92.22
2017-05-08T04:06:08.042Z,91.65
2017-05-08T04:07:07.829Z,91.65
2017-05-08T04:08:08.358Z,91.81
2017-05-08T04:09:08.241Z,91.23
2017-05-08T04:10:08.042Z,91.30
2017-05-08T04:11:07.475Z,91.60
2017-05-08T04:12:07.993Z,91.62
2017-05-08T04:13:07.556Z,91.27
2017-05-08T04:14:08.219Z,91.83
2017-05-08T04:15:07.768Z,92.00
2017-05-08T04:16:08.723Z,91.99
2017-05-08T04:17:08.408Z,92.19
2017-05-08T04:18:08.019Z,91.83
2017-05-08T04:19:07.910Z,92.07
2017-05-08T04:20:08.509Z,91.48
2017-05-08T04:21:08.025Z,91.87
2017-05-08T04:22:07.728Z,91.72
2017-05-08T04:23:08.254Z,92.06
2017-05-08T04:24:07.845Z,92.13
2017-05-08T04:25:11.338Z,92.31
2017-05-08T04:26:07.973Z,91.97
2017-05-08T04:27:07.819Z,92.40
2017-05-08T04:28:08.372Z,92.12
2017-05-08T04:29:07.850Z,92.03
2017-05-08T04:30:08.386Z,91.76
2017-05-08T04:31:07.882Z,91.46
2017-05-08T04:32:08.477Z,91.96
2017-05-08T04:33:08.061Z,92.11
2017-05-08T04:34:07.678Z,91.95
2017-05-08T04:35:08.279Z,92.00
2017-05-08T04:36:07.840Z,92.24
2017-05-08T04:37:08.391Z,92.41
2017-05-08T04:38:07.987Z,92.13
2017-05-08T04:39:07.511Z,91.84
2017-05-08T04:40:08.044Z,91.75
2017-05-08T04:41:07.563Z,91.52
2017-05-08T04:42:08.099Z,92.17
2017-05-08T04:43:07.700Z,91.96
2017-05-08T04:44:08.401Z,91.78
2017-05-08T04:45:08.156Z,91.85
2017-05-08T04:46:07.792Z,91.96
2017-05-08T04:47:08.490Z,92.07
2017-05-08T04:48:08.072Z,91.65
2017-05-08T04:49:07.817Z,90.98
2017-05-08T04:50:08.307Z,91.43
2017-05-08T04:51:07.886Z,91.68
2017-05-08T04:52:08.618Z,91.46
2017-05-08T04:53:08.580Z,91.53
2017-05-08T04:54:08.133Z,91.82
2017-05-08T04:55:07.695Z,91.91
2017-05-08T04:56:08.317Z,91.64
2017-05-08T04:57:07.962Z,91.62
2017-05-08T04:58:07.670Z,91.23
2017-05-08T04:59:08.349Z,91.36
2017-05-08T05:00:07.762Z,91.62
2017-05-08T05:01:08.363Z,91.89
2017-05-08T05:02:07.881Z,92.08
2017-05-08T05:03:08.557Z,92.21
2017-05-08T05:04:08.374Z,92.37
2017-05-08T05:05:08.077Z,92.14
2017-05-08T05:06:07.789Z,92.25
2017-05-08T05:07:08.397Z,92.36
2017-05-08T05:08:07.925Z,92.61
2017-05-08T05:09:08.618Z,91.85
2017-05-08T05:10:08.686Z,92.03
2017-05-08T05:11:08.741Z,92.14
2017-05-08T05:12:28.126Z,92.40
2017-05-08T05:13:07.999Z,92.75
2017-05-08T05:14:07.563Z,92.70
2017-05-08T05:15:08.114Z,92.74
2017-05-08T05:16:07.601Z,93.13
2017-05-08T05:17:07.956Z,92.86
2017-05-08T05:18:07.462Z,92.84
2017-05-08T05:19:08.059Z,92.22
2017-05-08T05:20:07.529Z,92.22
2017-05-08T05:21:08.084Z,92.38
2017-05-08T05:22:07.743Z,92.23
2017-05-08T05:23:08.480Z,92.56
2017-05-08T05:24:08.103Z,93.31
2017-05-08T05:25:07.601Z,93.40
2017-05-08T05:26:08.116Z,93.26
2017-05-08T05:27:07.710Z,92.59
2017-05-08T05:28:08.246Z,92.23
2017-05-08T05:29:07.899Z,92.84
2017-05-08T05:30:08.520Z,92.96
2017-05-08T05:31:08.134Z,92.48
2017-05-08T05:32:07.881Z,92.96
2017-05-08T05:33:08.346Z,93.45
2017-05-08T05:34:08.078Z,93.40
2017-05-08T05:35:07.732Z,93.03
2017-05-08T05:36:08.228Z,93.23
2017-05-08T05:37:08.004Z,93.57
2017-05-08T05:38:07.690Z,92.83
2017-05-08T05:39:17.737Z,92.59
2017-05-08T05:40:08.333Z,92.74
2017-05-08T05:41:07.916Z,92.82
2017-05-08T05:42:08.451Z,92.53
2017-05-08T05:43:07.996Z,92.38
2017-05-08T05:44:07.829Z,92.57
2017-05-08T05:45:08.412Z,92.46
2017-05-08T05:46:07.986Z,92.62
2017-05-08T05:47:07.786Z,92.71
2017-05-08T05:48:08.324Z,93.05
2017-05-08T05:49:07.955Z,92.56
2017-05-08T05:50:07.488Z,92.73
2017-05-08T05:51:08.074Z,93.26
2017-05-08T05:52:07.819Z,93.17
2017-05-08T05:53:08.436Z,93.33
2017-05-08T05:54:08.104Z,93.54
2017-05-08T05:55:07.592Z,94.05
2017-05-08T05:56:08.101Z,93.72
2017-05-08T05:57:07.545Z,93.11
2017-05-08T05:58:08.030Z,92.50
2017-05-08T05:59:07.506Z,92.26
2017-05-08T06:00:08.041Z,92.79
2017-05-08T06:01:07.475Z,92.92
2017-05-08T06:02:07.994Z,92.79
2017-05-08T06:03:07.508Z,92.88
2017-05-08T06:04:07.979Z,92.91
2017-05-08T06:05:07.539Z,92.56
2017-05-08T06:06:08.029Z,92.93
2017-05-08T06:07:07.534Z,92.85
2017-05-08T06:08:08.162Z,93.87
2017-05-08T06:09:07.887Z,93.91
2017-05-08T06:10:08.488Z,93.67
2017-05-08T06:11:08.159Z,93.44
2017-05-08T06:12:07.754Z,93.43
2017-05-08T06:13:08.318Z,93.70
2017-05-08T06:14:07.856Z,94.04
2017-05-08T06:15:08.637Z,93.72
2017-05-08T06:16:08.147Z,93.75
2017-05-08T06:17:07.978Z,93.86
2017-05-08T06:18:07.951Z,93.54
2017-05-08T06:19:07.494Z,93.41
2017-05-08T06:20:08.053Z,92.82
2017-05-08T06:21:07.534Z,92.96
2017-05-08T06:22:08.002Z,92.74
2017-05-08T06:23:07.676Z,93.27
2017-05-08T06:24:08.135Z,93.02
2017-05-08T06:25:07.613Z,93.29
2017-05-08T06:26:08.184Z,94.00
2017-05-08T06:27:07.692Z,94.48
2017-05-08T06:28:08.267Z,93.73
2017-05-08T06:29:08.074Z,94.06
2017-05-08T06:30:07.668Z,93.39
2017-05-08T06:31:08.297Z,93.71
2017-05-08T06:32:07.757Z,93.77
2017-05-08T06:33:08.205Z,94.24
2017-05-08T06:34:07.988Z,94.72
2017-05-08T06:35:07.513Z,94.80
2017-05-08T06:36:07.991Z,94.47
2017-05-08T06:37:07.854Z,95.52
2017-05-08T06:38:08.411Z,95.15
2017-05-08T06:39:07.905Z,94.62
2017-05-08T06:40:08.500Z,94.31
2017-05-08T06:41:08.091Z,94.53
2017-05-08T06:42:07.861Z,94.29
2017-05-08T06:43:08.758Z,94.28
2017-05-08T06:44:08.224Z,93.99
2017-05-08T06:45:08.019Z,94.99
2017-05-08T06:46:07.641Z,95.04
2017-05-08T06:47:08.285Z,94.70
2017-05-08T06:48:07.912Z,94.14
2017-05-08T06:49:08.468Z,94.59
2017-05-08T06:50:08.049Z,94.76
2017-05-08T06:51:07.674Z,94.03
2017-05-08T06:53:03.103Z,94.15
2017-05-08T06:53:08.235Z,93.39
2017-05-08T06:54:07.784Z,94.45
2017-05-08T06:55:08.357Z,94.07
2017-05-08T06:56:08.306Z,94.06
2017-05-08T06:57:08.261Z,93.97
2017-05-08T06:58:07.848Z,94.34
2017-05-08T06:59:08.508Z,93.94
2017-05-08T07:00:07.961Z,94.69
2017-05-08T07:01:07.778Z,94.53
2017-05-08T07:02:08.428Z,94.89
2017-05-08T07:03:07.970Z,95.05
2017-05-08T07:04:07.603Z,94.83
2017-05-08T07:05:08.096Z,94.25
2017-05-08T07:06:07.603Z,94.58
2017-05-08T07:07:08.184Z,94.82
2017-05-08T07:08:07.718Z,94.80
2017-05-08T07:09:08.332Z,94.53
2017-05-08T07:10:07.824Z,93.92
2017-05-08T07:11:08.453Z,94.18
2017-05-08T07:12:07.912Z,94.36
2017-05-08T07:13:07.657Z,93.58
2017-05-08T07:14:08.290Z,93.89
2017-05-08T07:15:07.856Z,94.16
2017-05-08T07:16:08.521Z,94.17
2017-05-08T07:17:08.441Z,94.55
2017-05-08T07:18:08.034Z,94.05
2017-05-08T07:19:07.518Z,94.60
2017-05-08T07:20:08.258Z,94.55
2017-05-08T07:21:08.018Z,94.65
2017-05-08T07:22:07.505Z,93.89
2017-05-08T07:23:08.017Z,93.30
2017-05-08T07:24:07.589Z,94.12
2017-05-08T07:25:08.101Z,93.49
2017-05-08T07:26:07.976Z,94.18
2017-05-08T07:27:07.507Z,93.97
2017-05-08T07:28:08.457Z,94.19
2017-05-08T07:29:08.066Z,93.35
2017-05-08T07:30:08.027Z,93.65
2017-05-08T07:31:07.497Z,94.09
2017-05-08T07:32:07.970Z,94.12
2017-05-08T07:33:07.600Z,93.79
2017-05-08T07:34:08.112Z,94.51
2017-05-08T07:35:07.695Z,95.55
2017-05-08T07:36:08.326Z,95.32
2017-05-08T07:37:08.008Z,96.02
2017-05-08T07:38:07.653Z,95.51
2017-05-08T07:39:08.239Z,95.31
2017-05-08T07:40:08.137Z,94.49
2017-05-08T07:41:07.835Z,94.97
2017-05-08T07:42:08.360Z,95.50
2017-05-08T07:43:08.270Z,95.61
2017-05-08T07:44:08.030Z,95.49
2017-05-08T07:45:07.824Z,95.37
2017-05-08T07:46:33.889Z,94.73
2017-05-08T07:47:08.870Z,95.16
2017-05-08T07:48:08.506Z,94.57
2017-05-08T07:49:08.109Z,94.70
2017-05-08T07:50:07.998Z,94.48
2017-05-08T07:51:07.900Z,94.91
2017-05-08T07:52:08.411Z,94.38
2017-05-08T07:53:07.923Z,94.04
2017-05-08T07:54:08.426Z,94.02
2017-05-08T07:55:07.878Z,93.94
2017-05-08T07:56:08.384Z,94.70
2017-05-08T07:57:07.981Z,94.17
2017-05-08T07:58:07.761Z,94.24
2017-05-08T07:59:08.379Z,93.29
2017-05-08T08:00:07.850Z,93.91
2017-05-08T08:01:08.328Z,93.46
2017-05-08T08:02:08.156Z,93.20
2017-05-08T08:03:07.650Z,93.49
2017-05-08T08:04:08.596Z,94.00
2017-05-08T08:05:08.218Z,95.17
2017-05-08T08:06:08.682Z,95.81
2017-05-08T08:07:08.232Z,94.98
2017-05-08T08:08:07.721Z,94.57
2017-05-08T08:09:08.477Z,94.96
2017-05-08T08:10:08.026Z,94.23
2017-05-08T08:11:07.522Z,93.68
2017-05-08T08:12:08.108Z,93.74
2017-05-08T08:13:07.923Z,94.19
2017-05-08T08:14:08.462Z,94.18
2017-05-08T08:15:07.915Z,94.80
2017-05-08T08:16:08.501Z,94.89
2017-05-08T08:17:08.222Z,94.99
2017-05-08T08:18:07.804Z,94.87
2017-05-08T08:19:08.660Z,94.44
2017-05-08T08:20:08.305Z,95.12
2017-05-08T08:21:07.916Z,95.50
2017-05-08T08:22:08.517Z,94.86
2017-05-08T08:23:08.191Z,94.68
2017-05-08T08:24:07.701Z,94.19
2017-05-08T08:25:08.422Z,94.38
2017-05-08T08:26:08.085Z,93.96
2017-05-08T08:27:07.526Z,93.94
2017-05-08T08:28:08.161Z,93.49
2017-05-08T08:29:07.955Z,94.42
2017-05-08T08:30:07.445Z,94.80
2017-05-08T08:31:07.942Z,95.23
2017-05-08T08:32:07.563Z,95.69
2017-05-08T08:33:08.258Z,95.72
2017-05-08T08:34:07.731Z,95.13
2017-05-08T08:35:08.262Z,94.36
2017-05-08T08:36:07.821Z,93.72
2017-05-08T08:37:08.671Z,94.50
2017-05-08T08:38:08.253Z,94.16
2017-05-08T08:39:07.827Z,93.76
2017-05-08T08:40:08.463Z,94.81
2017-05-08T08:41:07.986Z,95.52
2017-05-08T08:42:07.514Z,95.56
2017-05-08T08:43:08.163Z,94.81
2017-05-08T08:44:07.690Z,94.29
2017-05-08T08:45:08.308Z,93.22
2017-05-08T08:46:07.815Z,93.49
2017-05-08T08:47:08.343Z,93.86
2017-05-08T08:48:07.828Z,94.79
2017-05-08T08:49:08.371Z,95.18
2017-05-08T08:50:08.341Z,94.43
2017-05-08T08:51:07.926Z,94.20
2017-05-08T08:52:07.751Z,94.27
2017-05-08T08:53:08.402Z,94.59
2017-05-08T08:54:08.105Z,94.96
2017-05-08T08:55:07.794Z,94.88
2017-05-08T08:56:08.363Z,94.88
2017-05-08T08:57:07.876Z,94.28
2017-05-08T08:58:08.554Z,94.81
2017-05-08T08:59:08.045Z,94.82
2017-05-08T09:00:07.555Z,94.84
2017-05-08T09:01:08.088Z,95.06
2017-05-08T09:02:07.517Z,94.00
2017-05-08T09:03:08.164Z,94.45
2017-05-08T09:04:07.725Z,94.15
2017-05-08T09:05:08.278Z,94.12
2017-05-08T09:06:07.724Z,93.55
2017-05-08T09:07:07.604Z,93.68
2017-05-08T09:08:08.231Z,93.86
2017-05-08T09:09:07.719Z,93.95
2017-05-08T09:10:08.285Z,93.44
2017-05-08T09:11:07.848Z,93.68
2017-05-08T09:12:08.616Z,94.40
2017-05-08T09:13:08.188Z,94.15
2017-05-08T09:14:21.296Z,93.83
2017-05-08T09:15:07.898Z,94.51
2017-05-08T09:16:08.581Z,94.23
2017-05-08T09:17:08.459Z,94.57
2017-05-08T09:18:08.025Z,94.83
2017-05-08T09:19:07.938Z,95.23
2017-05-08T09:20:07.482Z,95.55
2017-05-08T09:21:08.061Z,94.71
2017-05-08T09:22:07.846Z,94.53
2017-05-08T09:23:08.508Z,94.59
2017-05-08T09:24:08.006Z,94.78
2017-05-08T09:25:07.459Z,94.49
2017-05-08T09:26:08.227Z,94.43
2017-05-08T09:27:07.802Z,94.85
2017-05-08T09:28:08.377Z,94.19
2017-05-08T09:29:07.914Z,95.04
2017-05-08T09:30:08.480Z,95.37
2017-05-08T09:31:07.988Z,94.47
2017-05-08T09:32:07.851Z,94.22
2017-05-08T09:33:08.401Z,95.04
2017-05-08T09:34:07.942Z,94.87
2017-05-08T09:35:07.770Z,95.03
2017-05-08T09:36:08.295Z,95.63
2017-05-08T09:37:07.720Z,95.57
2017-05-08T09:38:08.328Z,95.33
2017-05-08T09:39:07.968Z,95.15
2017-05-08T09:40:07.577Z,94.87
2017-05-08T09:41:08.132Z,94.84
2017-05-08T09:42:07.980Z,95.26
2017-05-08T09:43:07.488Z,95.30
2017-05-08T09:44:08.049Z,95.06
2017-05-08T09:45:07.888Z,94.99
2017-05-08T09:46:08.531Z,94.60
2017-05-08T09:47:08.342Z,95.71
2017-05-08T09:48:07.914Z,94.92
2017-05-08T09:49:08.534Z,95.13
2017-05-08T09:50:08.607Z,95.43
2017-05-08T09:51:08.095Z,95.57
2017-05-08T09:52:08.140Z,95.65
2017-05-08T09:53:07.827Z,95.48
2017-05-08T09:54:08.878Z,95.74
2017-05-08T09:55:11.545Z,95.80
2017-05-08T09:56:08.109Z,95.21
2017-05-08T09:57:07.801Z,95.09
2017-05-08T09:58:08.282Z,95.14
2017-05-08T09:59:07.877Z,95.46
2017-05-08T10:00:08.441Z,95.58
2017-05-08T10:01:07.923Z,95.47
2017-05-08T10:02:08.533Z,94.96
2017-05-08T10:03:08.017Z,95.35
2017-05-08T10:04:08.593Z,95.62
2017-05-08T10:05:08.500Z,95.95
2017-05-08T10:06:08.401Z,95.39
2017-05-08T10:07:08.038Z,95.28
2017-05-08T10:08:08.239Z,95.23
2017-05-08T10:09:07.816Z,94.98
2017-05-08T10:10:08.605Z,94.29
2017-05-08T10:11:08.265Z,94.60
2017-05-08T10:12:07.851Z,94.09
2017-05-08T10:13:08.458Z,94.00
2017-05-08T10:14:07.995Z,94.54
2017-05-08T10:15:07.463Z,94.97
2017-05-08T10:16:07.976Z,94.73
2017-05-08T10:17:07.532Z,94.67
2017-05-08T10:18:08.085Z,94.29
2017-05-08T10:19:07.666Z,94.46
2017-05-08T10:20:08.209Z,94.01
2017-05-08T10:21:07.731Z,93.41
2017-05-08T10:22:08.336Z,93.82
2017-05-08T10:23:07.865Z,94.05
2017-05-08T10:24:08.408Z,94.47
2017-05-08T10:25:07.963Z,94.66
2017-05-08T10:26:07.483Z,94.88
2017-05-08T10:27:08.253Z,94.59
2017-05-08T10:28:07.837Z,94.98
2017-05-08T10:29:08.435Z,94.06
2017-05-08T10:30:08.029Z,93.97
2017-05-08T10:31:07.501Z,94.69
2017-05-08T10:32:07.976Z,94.68
2017-05-08T10:33:07.703Z,94.46
2017-05-08T10:34:08.302Z,94.30
2017-05-08T10:35:07.837Z,94.41
2017-05-08T10:36:08.445Z,94.69
2017-05-08T10:37:08.083Z,94.41
2017-05-08T10:38:07.569Z,95.12
2017-05-08T10:39:08.215Z,95.51
2017-05-08T10:40:07.929Z,94.72
2017-05-08T10:41:08.536Z,94.07
2017-05-08T10:42:08.032Z,94.58
2017-05-08T10:43:07.680Z,94.99
2017-05-08T10:44:08.171Z,94.48
2017-05-08T10:45:07.749Z,94.97
2017-05-08T10:46:08.343Z,93.13
2017-05-08T10:47:07.930Z,93.74
2017-05-08T10:48:08.451Z,94.55
2017-05-08T10:49:08.378Z,94.62
2017-05-08T10:50:08.047Z,94.81
2017-05-08T10:51:07.759Z,95.01
2017-05-08T10:52:08.409Z,95.49
2017-05-08T10:53:07.982Z,95.71
2017-05-08T10:54:07.437Z,94.55
2017-05-08T10:55:07.905Z,94.45
2017-05-08T10:56:08.537Z,94.50
2017-05-08T10:57:08.060Z,94.97
2017-05-08T10:58:07.539Z,95.08
2017-05-08T10:59:08.094Z,95.03
2017-05-08T11:00:07.705Z,94.93
2017-05-08T11:01:08.316Z,95.26
2017-05-08T11:02:07.807Z,95.25
2017-05-08T11:03:08.327Z,95.36
2017-05-08T11:04:07.876Z,94.55
2017-05-08T11:05:08.444Z,94.74
2017-05-08T11:06:07.901Z,94.32
2017-05-08T11:07:08.390Z,94.69
2017-05-08T11:08:08.117Z,94.24
2017-05-08T11:09:07.651Z,93.45
2017-05-08T11:10:08.219Z,93.58
2017-05-08T11:11:07.733Z,94.40
2017-05-08T11:12:08.400Z,94.88
2017-05-08T11:13:08.222Z,94.90
2017-05-08T11:14:07.748Z,94.60
2017-05-08T11:15:08.363Z,94.73
2017-05-08T11:16:08.071Z,95.05
2017-05-08T11:17:07.892Z,94.64
2017-05-08T11:18:08.487Z,94.61
2017-05-08T11:20:01.686Z,95.15
2017-05-08T11:20:08.137Z,95.61
2017-05-08T11:21:07.679Z,95.61
2017-05-08T11:22:08.295Z,94.80
2017-05-08T11:23:07.913Z,94.40
2017-05-08T11:24:08.792Z,94.55
2017-05-08T11:25:08.399Z,94.16
2017-05-08T11:26:07.978Z,94.67
2017-05-08T11:27:07.534Z,94.37
2017-05-08T11:28:08.075Z,94.49
2017-05-08T11:29:07.611Z,94.57
2017-05-08T11:30:08.403Z,93.97
2017-05-08T11:31:07.865Z,94.06
2017-05-08T11:32:08.399Z,94.11
2017-05-08T11:33:07.914Z,94.16
2017-05-08T11:34:08.682Z,95.10
2017-05-08T11:35:08.234Z,95.00
2017-05-08T11:36:07.800Z,94.71
2017-05-08T11:37:08.367Z,94.76
2017-05-08T11:38:08.027Z,94.42
2017-05-08T11:39:07.853Z,94.56
2017-05-08T11:40:08.454Z,94.27
2017-05-08T11:41:07.971Z,93.60
2017-05-08T11:42:07.414Z,94.14
2017-05-08T11:43:07.855Z,94.11
2017-05-08T11:44:08.884Z,94.20
2017-05-08T11:45:08.528Z,93.79
2017-05-08T11:46:08.081Z,93.65
2017-05-08T11:47:07.712Z,93.97
2017-05-08T11:48:08.313Z,93.84
2017-05-08T11:49:07.785Z,93.93
2017-05-08T11:50:08.713Z,93.95
2017-05-08T11:51:08.511Z,93.94
2017-05-08T11:52:08.221Z,94.46
2017-05-08T11:53:08.060Z,95.32
2017-05-08T11:54:07.526Z,95.45
2017-05-08T11:55:08.143Z,94.28
2017-05-08T11:56:07.734Z,95.36
2017-05-08T11:57:28.002Z,95.38
2017-05-08T11:58:07.476Z,95.26
2017-05-08T11:59:07.966Z,95.44
2017-05-08T12:00:07.494Z,95.34
2017-05-08T12:01:08.059Z,95.47
2017-05-08T12:02:07.675Z,95.73
2017-05-08T12:03:08.125Z,95.82
2017-05-08T12:04:08.456Z,95.24
2017-05-08T12:05:08.026Z,95.38
2017-05-08T12:06:07.545Z,95.05
2017-05-08T12:07:08.025Z,95.07
2017-05-08T12:08:07.478Z,94.80
2017-05-08T12:09:08.003Z,94.53
2017-05-08T12:10:07.534Z,94.92
2017-05-08T12:11:08.155Z,95.31
2017-05-08T12:12:07.636Z,94.87
2017-05-08T12:13:08.507Z,95.49
2017-05-08T12:14:07.954Z,95.41
2017-05-08T12:15:07.464Z,95.24
2017-05-08T12:16:08.084Z,94.91
2017-05-08T12:17:07.896Z,93.94
2017-05-08T12:18:08.430Z,94.32
2017-05-08T12:19:08.106Z,94.38
2017-05-08T12:20:07.956Z,94.80
2017-05-08T12:21:07.566Z,94.73
2017-05-08T12:22:08.113Z,94.70
2017-05-08T12:23:07.690Z,95.01
2017-05-08T12:24:08.304Z,95.76
2017-05-08T12:25:07.803Z,94.79
2017-05-08T12:26:08.442Z,96.01
2017-05-08T12:27:07.943Z,95.89
2017-05-08T12:28:07.612Z,96.23
2017-05-08T12:29:08.149Z,96.68
2017-05-08T12:30:07.632Z,96.52
2017-05-08T12:31:08.349Z,96.74
2017-05-08T12:32:07.920Z,96.61
2017-05-08T12:33:08.612Z,96.59
2017-05-08T12:34:08.144Z,96.00
2017-05-08T12:35:07.720Z,95.75
2017-05-08T12:36:08.243Z,96.14
2017-05-08T12:37:07.842Z,96.94
2017-05-08T12:38:08.377Z,96.89
2017-05-08T12:39:07.962Z,95.66
2017-05-08T12:40:07.676Z,96.74
2017-05-08T12:41:08.323Z,96.79
2017-05-08T12:42:07.890Z,96.11
2017-05-08T12:43:08.657Z,96.23
2017-05-08T12:44:08.517Z,96.56
2017-05-08T12:45:08.375Z,96.43
2017-05-08T12:46:08.235Z,95.59
2017-05-08T12:47:07.954Z,95.26
2017-05-08T12:48:07.389Z,95.43
2017-05-08T12:49:07.877Z,95.81
2017-05-08T12:50:09.408Z,95.70
2017-05-08T12:51:07.890Z,95.25
2017-05-08T12:52:08.413Z,96.68